Time;durP1;ratioP1;P1;durP2;ratioP2;P2;SDS_P1;SDS_P2;PMS_P1;PMS_P2;Temp;Humidity;BMP_temperature;BMP_pressure;BME280_temperature;BME280_humidity;BME280_pressure;Samples;Min_cycle;Max_cycle;Signal;HPM_P1;HPM_P2
2024/04/02 00:00:06;;;;;;;;;;;10.60;99.90;;;;;;2098088;28;19931;-74
2024/04/02 00:01:10;;;;;;;;;;;10.60;99.90;;;;;;2097688;28;19955;-75
2024/04/02 00:02:10;;;;;;;;;;;10.60;99.90;;;;;;2100215;28;19931;-75
2024/04/02 00:03:11;;;;;;;;;;;10.70;99.90;;;;;;2097620;28;19920;-74
2024/04/02 00:04:13;;;;;;;;;;;10.60;99.90;;;;;;2095924;28;20359;-74
2024/04/02 00:05:13;;;;;;;;;;;10.60;99.90;;;;;;2089410;28;19923;-75
2024/04/02 00:06:14;;;;;;;;;;;10.60;99.90;;;;;;2088562;28;19920;-74
2024/04/02 00:07:14;;;;;;;;;;;10.60;99.90;;;;;;2077972;28;19921;-74
2024/04/02 00:08:15;;;;;;;;;;;10.60;99.90;;;;;;2091710;28;20387;-74
2024/04/02 00:09:15;;;;;;;;;;;10.60;99.90;;;;;;2096248;28;19920;-74
2024/04/02 00:10:16;;;;;;;;;;;10.60;99.90;;;;;;2093966;28;20781;-74
2024/04/02 00:11:16;;;;;;;;;;;10.60;99.90;;;;;;2088545;28;19920;-74
2024/04/02 00:12:17;;;;;;;;;;;10.60;99.90;;;;;;2086004;28;19921;-74
2024/04/02 00:13:17;;;;;;;;;;;10.60;99.90;;;;;;2100572;28;19962;-75
2024/04/02 00:14:18;;;;;;;;;;;10.60;99.90;;;;;;2088774;28;19913;-74
2024/04/02 00:15:18;;;;;;;;;;;10.60;99.90;;;;;;2089785;28;20462;-74
2024/04/02 00:16:19;;;;;;;;;;;10.60;99.90;;;;;;2105290;28;19923;-74
2024/04/02 00:17:19;;;;;;;;;;;10.60;99.90;;;;;;2096941;28;19916;-74
2024/04/02 00:18:20;;;;;;;;;;;10.60;99.90;;;;;;2092530;28;20372;-74
2024/04/02 00:19:20;;;;;;;;;;;10.60;99.90;;;;;;2080257;28;19939;-74
2024/04/02 00:20:22;;;;;;;;;;;10.60;99.90;;;;;;2089203;28;19964;-74
2024/04/02 00:21:22;;;;;;;;;;;10.60;99.90;;;;;;2099016;28;20174;-74
2024/04/02 00:22:23;;;;;;;;;;;10.60;99.90;;;;;;2100683;28;19912;-74
2024/04/02 00:23:23;;;;;;;;;;;10.60;99.90;;;;;;2097995;28;20400;-74
2024/04/02 00:24:24;;;;;;;;;;;10.60;99.90;;;;;;2092259;28;20453;-74
2024/04/02 00:25:24;;;;;;;;;;;10.50;99.90;;;;;;2092903;28;19952;-74
2024/04/02 00:26:25;;;;;;;;;;;10.60;99.90;;;;;;2089201;28;20291;-74
2024/04/02 00:27:27;;;;;;;;;;;10.60;99.90;;;;;;2085205;28;19939;-74
2024/04/02 00:28:28;;;;;;;;;;;10.60;99.90;;;;;;2092202;28;20433;-74
2024/04/02 00:29:28;;;;;;;;;;;10.60;99.90;;;;;;2088536;28;19960;-75
2024/04/02 00:30:29;;;;;;;;;;;10.60;99.90;;;;;;2088229;28;19917;-74
2024/04/02 00:31:30;;;;;;;;;;;10.50;99.90;;;;;;2099457;28;19916;-73
2024/04/02 00:32:31;;;;;;;;;;;10.50;99.90;;;;;;2088457;28;19960;-74
2024/04/02 00:33:32;;;;;;;;;;;10.50;99.90;;;;;;2088357;28;19948;-73
2024/04/02 00:34:32;;;;;;;;;;;10.50;99.90;;;;;;2092465;28;20277;-73
2024/04/02 00:35:33;;;;;;;;;;;10.50;99.90;;;;;;2088786;28;20041;-75
2024/04/02 00:36:33;;;;;;;;;;;10.50;99.90;;;;;;2088595;28;20446;-74
2024/04/02 00:37:34;;;;;;;;;;;10.50;99.90;;;;;;2090334;28;20010;-75
2024/04/02 00:38:34;;;;;;;;;;;10.50;99.90;;;;;;2080663;28;19924;-73
2024/04/02 00:39:37;;;;;;;;;;;10.40;99.90;;;;;;2092034;28;20413;-74
2024/04/02 00:40:41;;;;;;;;;;;10.40;99.90;;;;;;2100511;28;20341;-75
2024/04/02 00:41:41;;;;;;;;;;;10.40;99.90;;;;;;2091947;28;19927;-75
2024/04/02 00:42:43;;;;;;;;;;;10.30;99.90;;;;;;2092264;28;19913;-75
2024/04/02 00:43:43;;;;;;;;;;;10.30;99.90;;;;;;2089450;28;19912;-74
2024/04/02 00:44:44;;;;;;;;;;;10.30;99.90;;;;;;2088442;28;19963;-75
2024/04/02 00:45:44;;;;;;;;;;;10.30;99.90;;;;;;2091960;28;19916;-75
2024/04/02 00:46:45;;;;;;;;;;;10.30;99.90;;;;;;2089662;28;19988;-74
2024/04/02 00:47:46;;;;;;;;;;;10.30;99.90;;;;;;2088308;28;20020;-75
2024/04/02 00:48:47;;;;;;;;;;;10.30;99.90;;;;;;2091315;28;20299;-74
2024/04/02 00:49:47;;;;;;;;;;;10.30;99.90;;;;;;2089799;28;19920;-74
2024/04/02 00:50:48;;;;;;;;;;;10.30;99.90;;;;;;2079980;28;19923;-75
2024/04/02 00:51:49;;;;;;;;;;;10.30;99.90;;;;;;2082719;28;19919;-75
2024/04/02 00:52:49;;;;;;;;;;;10.30;99.90;;;;;;2099311;28;20293;-74
2024/04/02 00:53:50;;;;;;;;;;;10.20;99.90;;;;;;2088067;28;20075;-74
2024/04/02 00:54:50;;;;;;;;;;;10.20;99.90;;;;;;2090886;28;20372;-74
2024/04/02 00:55:51;;;;;;;;;;;10.20;99.90;;;;;;2100547;28;19927;-75
2024/04/02 00:56:52;;;;;;;;;;;10.20;99.90;;;;;;2100531;28;19949;-75
2024/04/02 00:57:52;;;;;;;;;;;10.20;99.90;;;;;;2090061;28;20022;-75
2024/04/02 00:58:54;;;;;;;;;;;10.10;99.90;;;;;;2088422;28;19917;-74
2024/04/02 00:59:54;;;;;;;;;;;10.10;99.90;;;;;;2099989;28;20423;-75
2024/04/02 01:00:57;;;;;;;;;;;10.10;99.90;;;;;;2099576;28;19969;-75
2024/04/02 01:01:57;;;;;;;;;;;10.10;99.90;;;;;;2091001;28;19923;-75
2024/04/02 01:02:58;;;;;;;;;;;10.10;99.90;;;;;;2084617;28;19941;-75
2024/04/02 01:03:59;;;;;;;;;;;10.00;99.90;;;;;;2081863;28;19920;-76
2024/04/02 01:04:59;;;;;;;;;;;10.00;99.90;;;;;;2082090;28;20318;-73
2024/04/02 01:06:00;;;;;;;;;;;10.00;99.90;;;;;;2088905;28;20473;-75
2024/04/02 01:07:02;;;;;;;;;;;10.00;99.90;;;;;;2099102;28;19923;-68
2024/04/02 01:08:02;;;;;;;;;;;10.00;99.90;;;;;;2107711;28;19929;-72
2024/04/02 01:09:06;;;;;;;;;;;10.00;99.90;;;;;;2104831;28;19916;-73
2024/04/02 01:10:07;;;;;;;;;;;10.00;99.90;;;;;;2101439;28;19955;-68
2024/04/02 01:11:07;;;;;;;;;;;10.00;99.90;;;;;;2101377;28;19916;-76
2024/04/02 01:12:08;;;;;;;;;;;9.90;99.90;;;;;;2092450;28;20444;-76
2024/04/02 01:13:08;;;;;;;;;;;9.90;99.90;;;;;;2088955;28;19916;-75
2024/04/02 01:14:09;;;;;;;;;;;9.90;99.90;;;;;;2101035;28;19959;-75
2024/04/02 01:15:09;;;;;;;;;;;9.90;99.90;;;;;;2097067;28;19916;-77
2024/04/02 01:16:13;;;;;;;;;;;9.90;99.90;;;;;;2088780;28;19916;-76
2024/04/02 01:17:15;;;;;;;;;;;9.80;99.90;;;;;;2089658;28;20307;-76
2024/04/02 01:18:16;;;;;;;;;;;9.90;99.90;;;;;;2101362;28;19959;-76
2024/04/02 01:19:17;;;;;;;;;;;9.90;99.90;;;;;;2084096;28;19913;-77
2024/04/02 01:20:17;;;;;;;;;;;9.90;99.90;;;;;;2084246;28;19920;-76
2024/04/02 01:21:18;;;;;;;;;;;9.90;99.90;;;;;;2092370;28;19912;-76
2024/04/02 01:22:19;;;;;;;;;;;9.90;99.90;;;;;;2101320;28;19927;-76
2024/04/02 01:23:19;;;;;;;;;;;9.90;99.90;;;;;;2088369;28;19917;-76
2024/04/02 01:24:20;;;;;;;;;;;9.90;99.90;;;;;;2091673;28;19927;-77
2024/04/02 01:25:21;;;;;;;;;;;9.90;99.90;;;;;;2080546;28;20421;-76
2024/04/02 01:26:21;;;;;;;;;;;9.90;99.90;;;;;;2088453;28;19952;-76
2024/04/02 01:27:22;;;;;;;;;;;9.90;99.90;;;;;;2100857;28;19912;-76
2024/04/02 01:28:22;;;;;;;;;;;9.90;99.90;;;;;;2100443;28;20415;-76
2024/04/02 01:29:23;;;;;;;;;;;9.90;99.90;;;;;;2100397;28;19908;-78
2024/04/02 01:30:23;;;;;;;;;;;9.90;99.90;;;;;;2100127;28;19920;-76
2024/04/02 01:31:27;;;;;;;;;;;9.90;99.90;;;;;;2079937;28;19931;-76
2024/04/02 01:32:27;;;;;;;;;;;9.90;99.90;;;;;;2081802;28;19919;-76
2024/04/02 01:33:28;;;;;;;;;;;9.90;99.90;;;;;;2083740;28;19975;-76
2024/04/02 01:34:28;;;;;;;;;;;9.90;99.90;;;;;;2088074;28;19913;-75
2024/04/02 01:35:28;;;;;;;;;;;9.90;99.90;;;;;;2091541;28;20314;-76
2024/04/02 01:36:29;;;;;;;;;;;9.90;99.90;;;;;;2080506;28;20010;-76
2024/04/02 01:37:30;;;;;;;;;;;9.90;99.90;;;;;;2084064;28;20347;-76
2024/04/02 01:38:30;;;;;;;;;;;9.90;99.90;;;;;;2091645;28;19916;-75
2024/04/02 01:39:30;;;;;;;;;;;9.90;99.90;;;;;;2091894;28;19921;-76
2024/04/02 01:40:31;;;;;;;;;;;9.90;99.90;;;;;;2091812;28;20008;-77
2024/04/02 01:41:31;;;;;;;;;;;9.90;99.90;;;;;;2100220;28;19912;-76
2024/04/02 01:42:32;;;;;;;;;;;9.90;99.90;;;;;;2093619;28;20320;-75
2024/04/02 01:43:32;;;;;;;;;;;9.90;99.90;;;;;;2087124;28;20003;-76
2024/04/02 01:44:33;;;;;;;;;;;9.90;99.90;;;;;;2082533;28;19917;-76
2024/04/02 01:45:33;;;;;;;;;;;10.00;99.90;;;;;;2089926;28;19913;-76
2024/04/02 01:46:34;;;;;;;;;;;10.00;99.90;;;;;;2104468;28;19965;-76
2024/04/02 01:47:34;;;;;;;;;;;10.00;99.90;;;;;;2094287;28;20377;-75
2024/04/02 01:48:35;;;;;;;;;;;10.00;99.90;;;;;;2092221;28;19956;-75
2024/04/02 01:49:35;;;;;;;;;;;10.00;99.90;;;;;;2087885;28;19917;-76
2024/04/02 01:50:36;;;;;;;;;;;10.10;99.90;;;;;;2106760;28;19920;-75
2024/04/02 01:51:36;;;;;;;;;;;10.10;99.90;;;;;;2096497;28;19942;-76
2024/04/02 01:52:37;;;;;;;;;;;10.10;99.90;;;;;;2096415;28;20301;-76
2024/04/02 01:53:37;;;;;;;;;;;10.10;99.90;;;;;;2099081;28;19916;-76
2024/04/02 01:54:38;;;;;;;;;;;10.10;99.90;;;;;;2097617;28;19916;-76
2024/04/02 01:55:38;;;;;;;;;;;10.10;99.90;;;;;;2098331;28;19952;-76
2024/04/02 01:56:39;;;;;;;;;;;10.10;99.90;;;;;;2097295;28;20468;-76
2024/04/02 01:57:39;;;;;;;;;;;10.10;99.90;;;;;;2100581;28;19916;-75
2024/04/02 01:58:40;;;;;;;;;;;10.10;99.90;;;;;;2101268;28;19916;-75
2024/04/02 01:59:40;;;;;;;;;;;10.20;99.90;;;;;;2088275;28;20413;-75
2024/04/02 02:00:41;;;;;;;;;;;10.20;99.90;;;;;;2081405;28;19924;-76
2024/04/02 02:01:41;;;;;;;;;;;10.20;99.90;;;;;;2089578;28;19921;-75
2024/04/02 02:02:42;;;;;;;;;;;10.20;99.90;;;;;;2096993;28;20333;-75
2024/04/02 02:03:42;;;;;;;;;;;10.20;99.90;;;;;;2090075;28;20024;-76
2024/04/02 02:04:43;;;;;;;;;;;10.20;99.90;;;;;;2090049;28;20448;-77
2024/04/02 02:05:47;;;;;;;;;;;10.20;99.90;;;;;;2088039;28;19991;-76
2024/04/02 02:06:47;;;;;;;;;;;10.10;99.90;;;;;;2097928;28;20425;-78
2024/04/02 02:07:48;;;;;;;;;;;10.20;99.90;;;;;;2100356;28;19912;-77
2024/04/02 02:08:49;;;;;;;;;;;10.20;99.90;;;;;;2091307;28;20364;-77
2024/04/02 02:09:49;;;;;;;;;;;10.20;99.90;;;;;;2091472;28;20272;-76
2024/04/02 02:10:53;;;;;;;;;;;10.20;99.90;;;;;;2091203;28;20140;-75
2024/04/02 02:11:54;;;;;;;;;;;10.20;99.90;;;;;;2096939;28;19998;-76
2024/04/02 02:12:54;;;;;;;;;;;10.20;99.90;;;;;;2089099;28;20413;-76
2024/04/02 02:13:55;;;;;;;;;;;10.20;99.90;;;;;;2091093;28;19917;-76
2024/04/02 02:14:55;;;;;;;;;;;10.20;99.90;;;;;;2096832;28;20443;-76
2024/04/02 02:16:00;;;;;;;;;;;10.20;99.90;;;;;;2088868;28;19916;-76
2024/04/02 02:17:00;;;;;;;;;;;10.20;99.90;;;;;;2091705;28;20034;-75
2024/04/02 02:18:01;;;;;;;;;;;10.20;99.90;;;;;;2079767;28;20284;-76
2024/04/02 02:19:02;;;;;;;;;;;10.20;99.90;;;;;;2087391;28;20017;-75
2024/04/02 02:20:03;;;;;;;;;;;10.20;99.90;;;;;;2101022;28;19920;-76
2024/04/02 02:21:03;;;;;;;;;;;10.20;99.90;;;;;;2097479;28;19924;-76
2024/04/02 02:22:04;;;;;;;;;;;10.20;99.90;;;;;;2088153;28;20100;-75
2024/04/02 02:23:04;;;;;;;;;;;10.20;99.90;;;;;;2075317;28;19956;-75
2024/04/02 02:24:05;;;;;;;;;;;10.20;99.90;;;;;;2087196;28;20008;-75
2024/04/02 02:25:06;;;;;;;;;;;10.20;99.90;;;;;;2097078;28;19920;-76
2024/04/02 02:26:06;;;;;;;;;;;10.10;99.90;;;;;;2097036;28;20520;-74
2024/04/02 02:27:07;;;;;;;;;;;10.20;99.90;;;;;;2101276;28;19940;-76
2024/04/02 02:28:09;;;;;;;;;;;10.20;99.90;;;;;;2087011;28;21280;-76
2024/04/02 02:29:09;;;;;;;;;;;10.20;99.90;;;;;;2087994;28;20070;-74
2024/04/02 02:30:10;;;;;;;;;;;10.20;99.90;;;;;;2093182;28;19916;-73
2024/04/02 02:31:11;;;;;;;;;;;10.20;99.90;;;;;;2079197;28;19917;-76
2024/04/02 02:32:11;;;;;;;;;;;10.20;99.90;;;;;;2083487;28;19966;-76
2024/04/02 02:33:12;;;;;;;;;;;10.20;99.90;;;;;;2079218;28;20388;-74
2024/04/02 02:34:13;;;;;;;;;;;10.20;99.90;;;;;;2091754;28;19912;-76
2024/04/02 02:35:13;;;;;;;;;;;10.20;99.90;;;;;;2087965;28;19963;-75
2024/04/02 02:36:14;;;;;;;;;;;10.20;99.90;;;;;;2079765;28;19956;-78
2024/04/02 02:37:14;;;;;;;;;;;10.30;99.90;;;;;;2091547;28;19917;-74
2024/04/02 02:38:15;;;;;;;;;;;10.30;99.90;;;;;;2097264;28;19916;-74
2024/04/02 02:39:15;;;;;;;;;;;10.30;99.90;;;;;;2097060;28;20267;-75
2024/04/02 02:40:16;;;;;;;;;;;10.30;99.90;;;;;;2100221;28;20302;-75
2024/04/02 02:41:16;;;;;;;;;;;10.30;99.90;;;;;;2097130;28;20396;-75
2024/04/02 02:42:17;;;;;;;;;;;10.30;99.90;;;;;;2097151;28;19917;-76
2024/04/02 02:43:17;;;;;;;;;;;10.30;99.90;;;;;;2100278;28;19912;-75
2024/04/02 02:44:18;;;;;;;;;;;10.30;99.90;;;;;;2097603;28;19992;-75
2024/04/02 02:45:18;;;;;;;;;;;10.30;99.90;;;;;;2096955;28;19920;-75
2024/04/02 02:46:19;;;;;;;;;;;10.30;99.90;;;;;;2100100;28;19964;-75
2024/04/02 02:47:19;;;;;;;;;;;10.30;99.90;;;;;;2100116;28;20393;-74
2024/04/02 02:48:20;;;;;;;;;;;10.30;99.90;;;;;;2099912;28;20006;-76
2024/04/02 02:49:20;;;;;;;;;;;10.30;99.90;;;;;;2096893;28;19924;-75
2024/04/02 02:50:21;;;;;;;;;;;10.30;99.90;;;;;;2100477;28;19916;-75
2024/04/02 02:51:21;;;;;;;;;;;10.30;99.90;;;;;;2088151;28;20466;-76
2024/04/02 02:52:22;;;;;;;;;;;10.30;99.90;;;;;;2087917;28;19951;-77
2024/04/02 02:53:22;;;;;;;;;;;10.30;99.90;;;;;;2091275;28;19913;-76
2024/04/02 02:54:23;;;;;;;;;;;10.30;99.90;;;;;;2088544;28;19982;-76
2024/04/02 02:55:24;;;;;;;;;;;10.30;99.90;;;;;;2091653;28;19916;-77
2024/04/02 02:56:24;;;;;;;;;;;10.30;99.90;;;;;;2099507;28;20317;-76
2024/04/02 02:57:24;;;;;;;;;;;10.30;99.90;;;;;;2100216;28;19954;-76
2024/04/02 02:58:25;;;;;;;;;;;10.30;99.90;;;;;;2090137;28;20465;-76
2024/04/02 02:59:26;;;;;;;;;;;10.30;99.90;;;;;;2090415;28;20364;-76
2024/04/02 03:00:26;;;;;;;;;;;10.30;99.90;;;;;;2097135;28;20450;-75
2024/04/02 03:01:26;;;;;;;;;;;10.30;99.90;;;;;;2100035;28;19939;-76
2024/04/02 03:02:27;;;;;;;;;;;10.30;99.90;;;;;;2099235;28;19955;-76
2024/04/02 03:03:27;;;;;;;;;;;10.30;99.90;;;;;;2101426;28;19912;-75
2024/04/02 03:04:28;;;;;;;;;;;10.30;99.90;;;;;;2095041;28;20295;-75
2024/04/02 03:05:28;;;;;;;;;;;10.30;99.90;;;;;;2089843;28;19934;-75
2024/04/02 03:06:29;;;;;;;;;;;10.30;99.90;;;;;;2087956;28;20020;-75
2024/04/02 03:07:29;;;;;;;;;;;10.30;99.90;;;;;;2103905;28;20278;-75
2024/04/02 03:08:30;;;;;;;;;;;10.30;99.90;;;;;;2100159;28;19947;-76
2024/04/02 03:09:32;;;;;;;;;;;10.30;99.90;;;;;;2087762;28;20377;-76
2024/04/02 03:10:33;;;;;;;;;;;10.40;99.90;;;;;;2089965;28;19940;-78
2024/04/02 03:11:33;;;;;;;;;;;10.30;99.90;;;;;;2088976;28;19979;-76
2024/04/02 03:12:34;;;;;;;;;;;10.40;99.90;;;;;;2083494;28;19912;-76
2024/04/02 03:13:34;;;;;;;;;;;10.30;99.90;;;;;;2090096;28;19963;-75
2024/04/02 03:14:35;;;;;;;;;;;10.30;99.90;;;;;;2089511;28;19972;-75
2024/04/02 03:15:38;;;;;;;;;;;10.30;99.90;;;;;;2087584;28;19947;-75
2024/04/02 03:16:38;;;;;;;;;;;10.30;99.90;;;;;;2085086;28;20162;-75
2024/04/02 03:17:39;;;;;;;;;;;10.30;99.90;;;;;;2090162;28;19916;-75
2024/04/02 03:18:40;;;;;;;;;;;10.30;99.90;;;;;;2099581;28;19912;-76
2024/04/02 03:19:41;;;;;;;;;;;10.40;99.90;;;;;;2099673;28;19915;-76
2024/04/02 03:20:41;;;;;;;;;;;10.30;99.90;;;;;;2100721;28;19920;-76
2024/04/02 03:21:41;;;;;;;;;;;10.40;99.90;;;;;;2100474;28;19923;-76
2024/04/02 03:22:42;;;;;;;;;;;10.40;99.90;;;;;;2098131;28;20246;-76
2024/04/02 03:23:42;;;;;;;;;;;10.40;99.90;;;;;;2099455;28;19968;-76
2024/04/02 03:24:43;;;;;;;;;;;10.40;99.90;;;;;;2091003;28;20374;-77
2024/04/02 03:25:53;;;;;;;;;;;10.40;99.90;;;;;;2083098;28;20057;-76
2024/04/02 03:26:53;;;;;;;;;;;10.40;99.90;;;;;;2088978;28;19943;-75
2024/04/02 03:27:54;;;;;;;;;;;10.40;99.90;;;;;;2087943;28;19920;-77
2024/04/02 03:28:54;;;;;;;;;;;10.40;99.90;;;;;;2083139;28;19913;-75
2024/04/02 03:29:55;;;;;;;;;;;10.30;99.90;;;;;;2087742;28;19916;-75
2024/04/02 03:30:57;;;;;;;;;;;10.40;99.90;;;;;;2080938;28;19917;-76
2024/04/02 03:31:57;;;;;;;;;;;10.40;99.90;;;;;;2087108;28;20322;-76
2024/04/02 03:32:58;;;;;;;;;;;10.40;99.90;;;;;;2100445;28;19951;-75
2024/04/02 03:33:58;;;;;;;;;;;10.40;99.90;;;;;;2091451;28;19966;-74
2024/04/02 03:34:58;;;;;;;;;;;10.40;99.90;;;;;;2079713;28;19913;-76
2024/04/02 03:36:01;;;;;;;;;;;10.40;99.90;;;;;;2091819;28;19977;-75
2024/04/02 03:37:01;;;;;;;;;;;10.40;99.90;;;;;;2097437;28;20218;-75
2024/04/02 03:38:03;;;;;;;;;;;10.40;99.90;;;;;;2096544;28;19916;-77
2024/04/02 03:39:03;;;;;;;;;;;10.40;99.90;;;;;;2091648;28;19913;-76
2024/04/02 03:40:04;;;;;;;;;;;10.40;99.90;;;;;;2087671;28;19913;-77
2024/04/02 03:41:11;;;;;;;;;;;10.40;99.90;;;;;;2091537;28;19939;-77
2024/04/02 03:42:11;;;;;;;;;;;10.40;99.90;;;;;;2100661;28;19916;-77
2024/04/02 03:43:12;;;;;;;;;;;10.40;99.90;;;;;;2096192;28;19944;-77
2024/04/02 03:44:12;;;;;;;;;;;10.40;99.90;;;;;;2096292;28;19974;-77
2024/04/02 03:45:13;;;;;;;;;;;10.40;99.90;;;;;;2099070;28;19920;-77
2024/04/02 03:46:13;;;;;;;;;;;10.40;99.90;;;;;;2088914;28;19927;-75
2024/04/02 03:47:14;;;;;;;;;;;10.40;99.90;;;;;;2081847;28;20383;-77
2024/04/02 03:48:14;;;;;;;;;;;10.40;99.90;;;;;;2089040;28;20007;-75
2024/04/02 03:49:15;;;;;;;;;;;10.40;99.90;;;;;;2096609;28;20346;-76
2024/04/02 03:50:15;;;;;;;;;;;10.40;99.90;;;;;;2099054;28;19908;-75
2024/04/02 03:51:16;;;;;;;;;;;10.40;99.90;;;;;;2097949;28;19916;-76
2024/04/02 03:52:16;;;;;;;;;;;10.50;99.90;;;;;;2097102;28;19952;-75
2024/04/02 03:53:17;;;;;;;;;;;10.50;99.90;;;;;;2100364;28;19915;-77
2024/04/02 03:54:17;;;;;;;;;;;10.50;99.90;;;;;;2098620;28;19916;-75
2024/04/02 03:55:18;;;;;;;;;;;10.50;99.90;;;;;;2092112;28;19922;-76
2024/04/02 03:56:18;;;;;;;;;;;10.50;99.90;;;;;;2081988;28;19913;-76
2024/04/02 03:57:19;;;;;;;;;;;10.50;99.90;;;;;;2082393;28;19913;-75
2024/04/02 03:58:19;;;;;;;;;;;10.50;99.90;;;;;;2095825;28;20009;-76
2024/04/02 03:59:20;;;;;;;;;;;10.50;99.90;;;;;;2098554;28;19930;-76
2024/04/02 04:00:20;;;;;;;;;;;10.50;99.90;;;;;;2099694;28;20289;-76
2024/04/02 04:01:21;;;;;;;;;;;10.50;99.90;;;;;;2096476;28;19926;-75
2024/04/02 04:02:22;;;;;;;;;;;10.50;99.90;;;;;;2096022;28;19920;-75
2024/04/02 04:03:23;;;;;;;;;;;10.50;99.90;;;;;;2078877;28;19913;-75
2024/04/02 04:04:23;;;;;;;;;;;10.50;99.90;;;;;;2078815;28;19931;-75
2024/04/02 04:05:24;;;;;;;;;;;10.50;99.90;;;;;;2099062;28;19924;-75
2024/04/02 04:06:24;;;;;;;;;;;10.50;99.90;;;;;;2088153;28;20433;-77
2024/04/02 04:07:25;;;;;;;;;;;10.50;99.90;;;;;;2081368;28;19916;-76
2024/04/02 04:08:26;;;;;;;;;;;10.50;99.90;;;;;;2090319;28;19974;-76
2024/04/02 04:09:27;;;;;;;;;;;10.50;99.90;;;;;;2096980;28;19981;-75
2024/04/02 04:10:27;;;;;;;;;;;10.50;99.90;;;;;;2098432;28;19916;-75
2024/04/02 04:11:27;;;;;;;;;;;10.50;99.90;;;;;;2096650;28;19913;-75
2024/04/02 04:12:28;;;;;;;;;;;10.50;99.90;;;;;;2095688;28;20447;-75
2024/04/02 04:13:28;;;;;;;;;;;10.50;99.90;;;;;;2097878;28;19916;-76
2024/04/02 04:14:29;;;;;;;;;;;10.50;99.90;;;;;;2099687;28;19966;-76
2024/04/02 04:15:30;;;;;;;;;;;10.40;99.90;;;;;;2085698;28;19909;-76
2024/04/02 04:16:30;;;;;;;;;;;10.50;99.90;;;;;;2088286;28;19927;-77
2024/04/02 04:17:31;;;;;;;;;;;10.50;99.90;;;;;;2108358;28;19937;-76
2024/04/02 04:18:31;;;;;;;;;;;10.50;99.90;;;;;;2097517;28;19916;-77
2024/04/02 04:19:32;;;;;;;;;;;10.40;99.90;;;;;;2089597;28;19916;-77
2024/04/02 04:20:34;;;;;;;;;;;10.40;99.90;;;;;;2101750;28;19911;-77
2024/04/02 04:21:34;;;;;;;;;;;10.40;99.90;;;;;;2088443;28;19985;-78
2024/04/02 04:22:35;;;;;;;;;;;10.40;99.90;;;;;;2088452;28;19912;-77
2024/04/02 04:23:35;;;;;;;;;;;10.30;99.90;;;;;;2077797;28;19928;-78
2024/04/02 04:24:36;;;;;;;;;;;10.30;99.90;;;;;;2088889;28;19925;-77
2024/04/02 04:25:36;;;;;;;;;;;10.30;99.90;;;;;;2092668;28;19985;-77
2024/04/02 04:26:37;;;;;;;;;;;10.30;99.90;;;;;;2098179;28;19913;-77
2024/04/02 04:27:37;;;;;;;;;;;10.30;99.90;;;;;;2102060;28;19923;-77
2024/04/02 04:28:38;;;;;;;;;;;10.30;99.90;;;;;;2101880;28;20068;-77
2024/04/02 04:29:38;;;;;;;;;;;10.30;99.90;;;;;;2102164;28;20382;-77
2024/04/02 04:30:39;;;;;;;;;;;10.20;99.90;;;;;;2088710;28;20008;-76
2024/04/02 04:31:43;;;;;;;;;;;10.20;99.90;;;;;;2086159;28;19975;-76
2024/04/02 04:32:44;;;;;;;;;;;10.20;99.90;;;;;;2081237;28;19909;-73
2024/04/02 04:33:44;;;;;;;;;;;10.20;99.90;;;;;;2089220;28;19961;-76
2024/04/02 04:34:46;;;;;;;;;;;10.20;99.90;;;;;;2088714;28;19956;-76
2024/04/02 04:35:47;;;;;;;;;;;10.20;99.90;;;;;;2101253;28;20098;-76
2024/04/02 04:36:47;;;;;;;;;;;10.10;99.90;;;;;;2098674;28;19919;-76
2024/04/02 04:37:48;;;;;;;;;;;10.10;99.90;;;;;;2097665;28;20303;-75
2024/04/02 04:38:48;;;;;;;;;;;10.10;99.90;;;;;;2091704;28;19913;-75
2024/04/02 04:39:49;;;;;;;;;;;10.10;99.90;;;;;;2084367;28;20401;-75
2024/04/02 04:40:49;;;;;;;;;;;10.10;99.90;;;;;;2097644;28;19948;-71
2024/04/02 04:41:50;;;;;;;;;;;10.10;99.90;;;;;;2098127;28;20089;-71
2024/04/02 04:42:50;;;;;;;;;;;10.10;99.90;;;;;;2097684;28;19916;-71
2024/04/02 04:43:51;;;;;;;;;;;10.10;99.90;;;;;;2083961;28;20272;-71
2024/04/02 04:44:51;;;;;;;;;;;10.10;99.90;;;;;;2080859;28;20495;-71
2024/04/02 04:46:01;;;;;;;;;;;10.10;99.90;;;;;;2097829;28;19943;-71
2024/04/02 04:47:01;;;;;;;;;;;10.10;99.90;;;;;;2099834;28;20298;-71
2024/04/02 04:48:05;;;;;;;;;;;10.10;99.90;;;;;;2107406;28;20010;-71
2024/04/02 04:49:06;;;;;;;;;;;10.10;99.90;;;;;;2102302;28;20459;-71
2024/04/02 04:50:06;;;;;;;;;;;10.10;99.90;;;;;;2094822;28;19939;-72
2024/04/02 04:51:07;;;;;;;;;;;10.10;99.90;;;;;;2101692;28;19924;-71
2024/04/02 04:52:07;;;;;;;;;;;10.10;99.90;;;;;;2101443;28;20465;-71
2024/04/02 04:53:09;;;;;;;;;;;10.10;99.90;;;;;;2092515;28;20002;-71
2024/04/02 04:54:09;;;;;;;;;;;10.10;99.90;;;;;;2088172;28;19935;-71
2024/04/02 04:55:10;;;;;;;;;;;10.10;99.90;;;;;;2098169;28;19912;-71
2024/04/02 04:56:10;;;;;;;;;;;10.10;99.90;;;;;;2100739;28;19918;-71
2024/04/02 04:57:11;;;;;;;;;;;10.10;99.90;;;;;;2092159;28;20026;-72
2024/04/02 04:58:11;;;;;;;;;;;10.10;99.90;;;;;;2088891;28;20369;-70
2024/04/02 04:59:12;;;;;;;;;;;10.10;99.90;;;;;;2091840;28;19987;-74
2024/04/02 05:00:12;;;;;;;;;;;10.10;99.90;;;;;;2084260;28;19921;-71
2024/04/02 05:01:14;;;;;;;;;;;10.10;99.90;;;;;;2091794;28;19916;-71
2024/04/02 05:02:14;;;;;;;;;;;10.00;99.90;;;;;;2089605;28;19919;-71
2024/04/02 05:03:15;;;;;;;;;;;10.10;99.90;;;;;;2080010;28;19921;-71
2024/04/02 05:04:15;;;;;;;;;;;10.00;99.90;;;;;;2087850;28;19992;-71
2024/04/02 05:05:16;;;;;;;;;;;10.00;99.90;;;;;;2100861;28;20483;-71
2024/04/02 05:06:16;;;;;;;;;;;10.00;99.90;;;;;;2101450;28;19991;-71
2024/04/02 05:07:24;;;;;;;;;;;10.00;99.90;;;;;;2085074;28;19980;-71
2024/04/02 05:08:26;;;;;;;;;;;10.00;99.90;;;;;;2080347;28;20007;-71
2024/04/02 05:09:26;;;;;;;;;;;10.00;99.90;;;;;;2084845;28;19995;-71
2024/04/02 05:10:27;;;;;;;;;;;10.00;99.90;;;;;;2097254;28;19962;-71
2024/04/02 05:11:27;;;;;;;;;;;10.00;99.90;;;;;;2092095;28;19920;-71
2024/04/02 05:12:27;;;;;;;;;;;10.00;99.90;;;;;;2092359;28;19909;-71
2024/04/02 05:13:28;;;;;;;;;;;10.00;99.90;;;;;;2097173;28;20190;-71
2024/04/02 05:14:29;;;;;;;;;;;10.00;99.90;;;;;;2100123;28;19950;-71
2024/04/02 05:15:29;;;;;;;;;;;10.00;99.90;;;;;;2098276;28;19912;-71
2024/04/02 05:16:30;;;;;;;;;;;10.00;99.90;;;;;;2097147;28;19954;-71
2024/04/02 05:17:31;;;;;;;;;;;10.00;99.90;;;;;;2100045;28;19923;-71
2024/04/02 05:18:32;;;;;;;;;;;10.00;99.90;;;;;;2096912;28;19927;-71
2024/04/02 05:19:33;;;;;;;;;;;10.00;99.90;;;;;;2098131;28;20007;-71
2024/04/02 05:20:33;;;;;;;;;;;10.00;99.90;;;;;;2097213;28;19999;-71
2024/04/02 05:21:34;;;;;;;;;;;10.00;99.90;;;;;;2100450;28;19912;-71
2024/04/02 05:22:34;;;;;;;;;;;9.90;99.90;;;;;;2101915;28;20070;-71
2024/04/02 05:23:35;;;;;;;;;;;9.90;99.90;;;;;;2104607;28;20394;-71
2024/04/02 05:24:35;;;;;;;;;;;9.90;99.90;;;;;;2100729;28;19923;-71
2024/04/02 05:25:36;;;;;;;;;;;9.90;99.90;;;;;;2101952;28;20014;-71
2024/04/02 05:26:36;;;;;;;;;;;9.90;99.90;;;;;;2104583;28;20009;-70
2024/04/02 05:27:36;;;;;;;;;;;9.90;99.90;;;;;;2100572;28;19920;-71
2024/04/02 05:28:37;;;;;;;;;;;9.90;99.90;;;;;;2092157;28;20007;-71
2024/04/02 05:29:37;;;;;;;;;;;9.90;99.90;;;;;;2088071;28;20406;-71
2024/04/02 05:30:38;;;;;;;;;;;10.00;99.90;;;;;;2089164;28;20368;-71
2024/04/02 05:31:38;;;;;;;;;;;9.90;99.90;;;;;;2081633;28;19924;-71
2024/04/02 05:32:39;;;;;;;;;;;10.00;99.90;;;;;;2090002;28;19913;-72
2024/04/02 05:33:40;;;;;;;;;;;10.00;99.90;;;;;;2089562;28;20298;-70
2024/04/02 05:34:41;;;;;;;;;;;10.00;99.90;;;;;;2092161;28;19909;-70
2024/04/02 05:35:41;;;;;;;;;;;10.10;99.90;;;;;;2099388;28;20394;-71
2024/04/02 05:36:42;;;;;;;;;;;10.10;99.90;;;;;;2087875;28;19916;-71
2024/04/02 05:37:42;;;;;;;;;;;10.10;99.90;;;;;;2081314;28;19916;-71
2024/04/02 05:38:43;;;;;;;;;;;10.10;99.90;;;;;;2088019;28;19921;-71
2024/04/02 05:39:48;;;;;;;;;;;10.20;99.90;;;;;;2099527;28;19948;-71
2024/04/02 05:40:49;;;;;;;;;;;10.20;99.90;;;;;;2099651;28;19934;-71
2024/04/02 05:41:49;;;;;;;;;;;10.20;99.90;;;;;;2096710;28;19935;-71
2024/04/02 05:42:50;;;;;;;;;;;10.20;99.90;;;;;;2098712;28;19916;-71
2024/04/02 05:43:50;;;;;;;;;;;10.20;99.90;;;;;;2099654;28;19912;-71
2024/04/02 05:44:51;;;;;;;;;;;10.20;99.90;;;;;;2096955;28;20367;-70
2024/04/02 05:45:52;;;;;;;;;;;10.20;99.90;;;;;;2098385;28;21175;-71
2024/04/02 05:46:52;;;;;;;;;;;10.20;99.90;;;;;;2096621;28;19930;-72
2024/04/02 05:47:53;;;;;;;;;;;10.20;99.90;;;;;;2095895;28;19912;-72
2024/04/02 05:48:53;;;;;;;;;;;10.20;99.90;;;;;;2100516;28;19977;-71
2024/04/02 05:49:54;;;;;;;;;;;10.20;99.90;;;;;;2101400;28;19912;-71
2024/04/02 05:50:55;;;;;;;;;;;10.20;99.90;;;;;;2100563;28;19912;-72
2024/04/02 05:51:55;;;;;;;;;;;10.20;99.90;;;;;;2100818;28;19916;-71
2024/04/02 05:52:56;;;;;;;;;;;10.30;99.90;;;;;;2087980;28;19917;-71
2024/04/02 05:53:56;;;;;;;;;;;10.30;99.90;;;;;;2088219;28;19924;-71